sensor_id;sensor_type;location;lat;lon;timestamp;P1;durP1;ratioP1;P2;durP2;ratioP2
19883;SDS011;10104;50.732;10.174;2024-03-22T00:00:29;8.67;;;4.80;;
19883;SDS011;10104;50.732;10.174;2024-03-22T00:03:08;8.07;;;4.50;;
19883;SDS011;10104;50.732;10.174;2024-03-22T00:05:47;8.97;;;4.80;;
19883;SDS011;10104;50.732;10.174;2024-03-22T00:08:26;9.57;;;5.67;;
19883;SDS011;10104;50.732;10.174;2024-03-22T00:11:05;7.43;;;5.20;;
19883;SDS011;10104;50.732;10.174;2024-03-22T00:13:44;8.30;;;5.53;;
19883;SDS011;10104;50.732;10.174;2024-03-22T00:16:23;7.63;;;5.10;;
19883;SDS011;10104;50.732;10.174;2024-03-22T00:19:02;8.97;;;5.83;;
19883;SDS011;10104;50.732;10.174;2024-03-22T00:21:42;7.97;;;5.27;;
19883;SDS011;10104;50.732;10.174;2024-03-22T00:24:21;7.17;;;4.50;;
19883;SDS011;10104;50.732;10.174;2024-03-22T00:27:00;6.30;;;4.50;;
19883;SDS011;10104;50.732;10.174;2024-03-22T00:29:39;6.33;;;4.73;;
19883;SDS011;10104;50.732;10.174;2024-03-22T00:32:18;8.43;;;5.47;;
19883;SDS011;10104;50.732;10.174;2024-03-22T00:34:57;7.33;;;5.07;;
19883;SDS011;10104;50.732;10.174;2024-03-22T00:37:36;7.07;;;5.03;;
19883;SDS011;10104;50.732;10.174;2024-03-22T00:40:15;9.10;;;5.57;;
19883;SDS011;10104;50.732;10.174;2024-03-22T00:42:54;10.13;;;5.00;;
19883;SDS011;10104;50.732;10.174;2024-03-22T00:45:33;10.00;;;5.20;;
19883;SDS011;10104;50.732;10.174;2024-03-22T00:48:12;11.07;;;6.00;;
19883;SDS011;10104;50.732;10.174;2024-03-22T00:50:52;11.57;;;6.63;;
19883;SDS011;10104;50.732;10.174;2024-03-22T00:53:31;11.50;;;6.53;;
19883;SDS011;10104;50.732;10.174;2024-03-22T00:56:10;7.33;;;4.97;;
19883;SDS011;10104;50.732;10.174;2024-03-22T00:58:49;8.53;;;5.03;;
19883;SDS011;10104;50.732;10.174;2024-03-22T01:01:28;11.03;;;6.37;;
19883;SDS011;10104;50.732;10.174;2024-03-22T01:04:07;11.53;;;7.50;;
19883;SDS011;10104;50.732;10.174;2024-03-22T01:06:48;11.27;;;7.17;;
19883;SDS011;10104;50.732;10.174;2024-03-22T01:09:27;11.27;;;6.53;;
19883;SDS011;10104;50.732;10.174;2024-03-22T01:12:07;8.83;;;5.90;;
19883;SDS011;10104;50.732;10.174;2024-03-22T01:14:46;10.93;;;6.50;;
19883;SDS011;10104;50.732;10.174;2024-03-22T01:17:25;9.37;;;6.10;;
19883;SDS011;10104;50.732;10.174;2024-03-22T01:20:04;8.73;;;6.17;;
19883;SDS011;10104;50.732;10.174;2024-03-22T01:22:44;11.23;;;6.73;;
19883;SDS011;10104;50.732;10.174;2024-03-22T01:25:23;13.33;;;6.10;;
19883;SDS011;10104;50.732;10.174;2024-03-22T01:28:02;12.03;;;6.33;;
19883;SDS011;10104;50.732;10.174;2024-03-22T01:30:43;11.37;;;6.10;;
19883;SDS011;10104;50.732;10.174;2024-03-22T01:33:22;8.77;;;6.70;;
19883;SDS011;10104;50.732;10.174;2024-03-22T01:36:01;10.27;;;6.70;;
19883;SDS011;10104;50.732;10.174;2024-03-22T01:38:40;10.30;;;6.23;;
19883;SDS011;10104;50.732;10.174;2024-03-22T01:41:19;14.57;;;6.87;;
19883;SDS011;10104;50.732;10.174;2024-03-22T01:43:58;9.77;;;6.30;;
19883;SDS011;10104;50.732;10.174;2024-03-22T01:46:38;14.27;;;5.97;;
19883;SDS011;10104;50.732;10.174;2024-03-22T01:49:17;12.20;;;6.23;;
19883;SDS011;10104;50.732;10.174;2024-03-22T01:51:56;8.97;;;5.73;;
19883;SDS011;10104;50.732;10.174;2024-03-22T01:54:36;10.93;;;5.93;;
19883;SDS011;10104;50.732;10.174;2024-03-22T01:57:15;9.67;;;6.73;;
19883;SDS011;10104;50.732;10.174;2024-03-22T01:59:55;12.30;;;6.73;;
19883;SDS011;10104;50.732;10.174;2024-03-22T02:02:36;10.93;;;6.67;;
19883;SDS011;10104;50.732;10.174;2024-03-22T02:05:15;11.17;;;7.23;;
19883;SDS011;10104;50.732;10.174;2024-03-22T02:07:58;9.07;;;5.93;;
19883;SDS011;10104;50.732;10.174;2024-03-22T02:10:37;11.03;;;6.97;;
19883;SDS011;10104;50.732;10.174;2024-03-22T02:13:16;9.73;;;6.70;;
19883;SDS011;10104;50.732;10.174;2024-03-22T02:15:55;10.70;;;6.83;;
19883;SDS011;10104;50.732;10.174;2024-03-22T02:18:35;10.47;;;6.83;;
19883;SDS011;10104;50.732;10.174;2024-03-22T02:21:15;10.80;;;7.10;;
19883;SDS011;10104;50.732;10.174;2024-03-22T02:23:54;10.57;;;7.10;;
19883;SDS011;10104;50.732;10.174;2024-03-22T02:26:33;14.03;;;7.67;;
19883;SDS011;10104;50.732;10.174;2024-03-22T02:29:12;14.47;;;7.90;;
19883;SDS011;10104;50.732;10.174;2024-03-22T02:31:51;15.30;;;7.87;;
19883;SDS011;10104;50.732;10.174;2024-03-22T02:34:30;12.00;;;7.70;;
19883;SDS011;10104;50.732;10.174;2024-03-22T02:37:09;16.27;;;7.43;;
19883;SDS011;10104;50.732;10.174;2024-03-22T02:39:48;13.20;;;6.17;;
19883;SDS011;10104;50.732;10.174;2024-03-22T02:42:27;11.37;;;6.37;;
19883;SDS011;10104;50.732;10.174;2024-03-22T02:45:05;16.83;;;6.60;;
19883;SDS011;10104;50.732;10.174;2024-03-22T02:47:45;11.27;;;7.23;;
19883;SDS011;10104;50.732;10.174;2024-03-22T02:50:24;12.73;;;7.50;;
19883;SDS011;10104;50.732;10.174;2024-03-22T02:53:03;11.53;;;7.40;;
19883;SDS011;10104;50.732;10.174;2024-03-22T02:55:42;10.20;;;6.63;;
19883;SDS011;10104;50.732;10.174;2024-03-22T02:58:22;13.00;;;7.33;;
19883;SDS011;10104;50.732;10.174;2024-03-22T03:01:01;12.43;;;8.10;;
19883;SDS011;10104;50.732;10.174;2024-03-22T03:03:41;11.93;;;7.70;;
19883;SDS011;10104;50.732;10.174;2024-03-22T03:06:21;10.20;;;6.30;;
19883;SDS011;10104;50.732;10.174;2024-03-22T03:09:00;12.50;;;7.20;;
19883;SDS011;10104;50.732;10.174;2024-03-22T03:11:39;12.43;;;7.07;;
19883;SDS011;10104;50.732;10.174;2024-03-22T03:14:19;11.67;;;7.07;;
19883;SDS011;10104;50.732;10.174;2024-03-22T03:16:58;12.43;;;7.37;;
19883;SDS011;10104;50.732;10.174;2024-03-22T03:19:36;14.17;;;7.30;;
19883;SDS011;10104;50.732;10.174;2024-03-22T03:22:15;12.67;;;7.07;;
19883;SDS011;10104;50.732;10.174;2024-03-22T03:24:54;10.57;;;6.77;;
19883;SDS011;10104;50.732;10.174;2024-03-22T03:27:33;12.33;;;7.70;;
19883;SDS011;10104;50.732;10.174;2024-03-22T03:30:13;12.80;;;6.87;;
19883;SDS011;10104;50.732;10.174;2024-03-22T03:32:52;12.70;;;7.00;;
19883;SDS011;10104;50.732;10.174;2024-03-22T03:35:31;12.20;;;7.13;;
19883;SDS011;10104;50.732;10.174;2024-03-22T03:38:10;10.57;;;6.70;;
19883;SDS011;10104;50.732;10.174;2024-03-22T03:40:49;17.53;;;8.17;;
19883;SDS011;10104;50.732;10.174;2024-03-22T03:43:28;15.17;;;8.07;;
19883;SDS011;10104;50.732;10.174;2024-03-22T03:46:07;13.97;;;8.00;;
19883;SDS011;10104;50.732;10.174;2024-03-22T03:48:46;15.07;;;8.13;;
19883;SDS011;10104;50.732;10.174;2024-03-22T03:51:25;13.37;;;7.77;;
19883;SDS011;10104;50.732;10.174;2024-03-22T03:54:04;13.17;;;7.43;;
19883;SDS011;10104;50.732;10.174;2024-03-22T03:56:43;12.20;;;7.83;;
19883;SDS011;10104;50.732;10.174;2024-03-22T03:59:23;14.10;;;7.93;;
19883;SDS011;10104;50.732;10.174;2024-03-22T04:02:02;17.07;;;8.67;;
19883;SDS011;10104;50.732;10.174;2024-03-22T04:04:42;17.03;;;8.60;;
19883;SDS011;10104;50.732;10.174;2024-03-22T04:07:21;15.60;;;8.27;;
19883;SDS011;10104;50.732;10.174;2024-03-22T04:10:00;12.70;;;7.13;;
19883;SDS011;10104;50.732;10.174;2024-03-22T04:12:39;14.67;;;7.80;;
19883;SDS011;10104;50.732;10.174;2024-03-22T04:15:21;21.07;;;12.27;;
19883;SDS011;10104;50.732;10.174;2024-03-22T04:18:00;21.57;;;12.70;;
19883;SDS011;10104;50.732;10.174;2024-03-22T04:20:39;15.50;;;9.00;;
19883;SDS011;10104;50.732;10.174;2024-03-22T04:23:19;14.67;;;8.77;;
19883;SDS011;10104;50.732;10.174;2024-03-22T04:25:58;13.93;;;8.30;;
19883;SDS011;10104;50.732;10.174;2024-03-22T04:28:38;14.13;;;7.83;;
19883;SDS011;10104;50.732;10.174;2024-03-22T04:31:17;12.47;;;7.93;;
19883;SDS011;10104;50.732;10.174;2024-03-22T04:33:56;12.47;;;7.87;;
19883;SDS011;10104;50.732;10.174;2024-03-22T04:36:35;13.13;;;7.97;;
19883;SDS011;10104;50.732;10.174;2024-03-22T04:39:14;14.50;;;8.03;;
19883;SDS011;10104;50.732;10.174;2024-03-22T04:41:55;18.07;;;8.13;;
19883;SDS011;10104;50.732;10.174;2024-03-22T04:44:34;15.30;;;8.07;;
19883;SDS011;10104;50.732;10.174;2024-03-22T04:47:13;17.23;;;8.40;;
19883;SDS011;10104;50.732;10.174;2024-03-22T04:49:52;19.00;;;10.43;;
19883;SDS011;10104;50.732;10.174;2024-03-22T04:52:32;16.90;;;9.93;;
19883;SDS011;10104;50.732;10.174;2024-03-22T04:55:10;16.77;;;10.20;;
19883;SDS011;10104;50.732;10.174;2024-03-22T04:57:51;20.80;;;11.27;;
19883;SDS011;10104;50.732;10.174;2024-03-22T05:00:31;18.23;;;9.47;;
19883;SDS011;10104;50.732;10.174;2024-03-22T05:03:10;26.13;;;12.33;;
19883;SDS011;10104;50.732;10.174;2024-03-22T05:05:50;18.00;;;9.43;;
19883;SDS011;10104;50.732;10.174;2024-03-22T05:08:29;23.23;;;11.33;;
19883;SDS011;10104;50.732;10.174;2024-03-22T05:11:08;31.60;;;15.17;;
19883;SDS011;10104;50.732;10.174;2024-03-22T05:13:47;25.17;;;12.10;;
19883;SDS011;10104;50.732;10.174;2024-03-22T05:16:26;29.30;;;12.13;;
19883;SDS011;10104;50.732;10.174;2024-03-22T05:19:05;28.57;;;12.50;;
19883;SDS011;10104;50.732;10.174;2024-03-22T05:21:43;21.73;;;12.43;;
19883;SDS011;10104;50.732;10.174;2024-03-22T05:24:23;23.80;;;12.43;;
19883;SDS011;10104;50.732;10.174;2024-03-22T05:27:01;28.47;;;14.10;;
19883;SDS011;10104;50.732;10.174;2024-03-22T05:29:41;29.27;;;14.73;;
19883;SDS011;10104;50.732;10.174;2024-03-22T05:32:20;26.97;;;12.77;;
19883;SDS011;10104;50.732;10.174;2024-03-22T05:35:00;23.17;;;11.50;;
19883;SDS011;10104;50.732;10.174;2024-03-22T05:37:39;26.83;;;12.93;;
19883;SDS011;10104;50.732;10.174;2024-03-22T05:40:18;26.10;;;12.67;;
19883;SDS011;10104;50.732;10.174;2024-03-22T05:42:58;22.03;;;12.17;;
19883;SDS011;10104;50.732;10.174;2024-03-22T05:45:37;23.23;;;11.80;;
19883;SDS011;10104;50.732;10.174;2024-03-22T05:48:16;19.73;;;10.90;;
19883;SDS011;10104;50.732;10.174;2024-03-22T05:50:55;19.10;;;10.13;;
19883;SDS011;10104;50.732;10.174;2024-03-22T05:53:34;23.03;;;12.13;;
19883;SDS011;10104;50.732;10.174;2024-03-22T05:56:13;24.10;;;12.40;;
19883;SDS011;10104;50.732;10.174;2024-03-22T05:58:53;28.10;;;13.77;;
19883;SDS011;10104;50.732;10.174;2024-03-22T06:01:32;27.10;;;13.30;;
19883;SDS011;10104;50.732;10.174;2024-03-22T06:04:11;35.23;;;17.50;;
19883;SDS011;10104;50.732;10.174;2024-03-22T06:06:50;33.13;;;16.60;;
19883;SDS011;10104;50.732;10.174;2024-03-22T06:09:29;28.43;;;16.80;;
19883;SDS011;10104;50.732;10.174;2024-03-22T06:12:24;30.57;;;16.23;;
19883;SDS011;10104;50.732;10.174;2024-03-22T06:15:04;31.20;;;15.73;;
19883;SDS011;10104;50.732;10.174;2024-03-22T06:17:45;27.77;;;13.77;;
19883;SDS011;10104;50.732;10.174;2024-03-22T06:20:24;33.30;;;16.10;;
19883;SDS011;10104;50.732;10.174;2024-03-22T06:23:03;34.50;;;16.13;;
19883;SDS011;10104;50.732;10.174;2024-03-22T06:25:50;30.07;;;15.47;;
19883;SDS011;10104;50.732;10.174;2024-03-22T06:28:30;25.53;;;14.40;;
19883;SDS011;10104;50.732;10.174;2024-03-22T06:31:09;27.90;;;14.10;;
19883;SDS011;10104;50.732;10.174;2024-03-22T06:33:49;29.57;;;14.50;;
19883;SDS011;10104;50.732;10.174;2024-03-22T06:36:28;32.47;;;15.27;;
19883;SDS011;10104;50.732;10.174;2024-03-22T06:39:09;31.77;;;15.90;;
19883;SDS011;10104;50.732;10.174;2024-03-22T06:41:49;28.70;;;15.10;;
19883;SDS011;10104;50.732;10.174;2024-03-22T06:44:28;29.87;;;14.90;;
19883;SDS011;10104;50.732;10.174;2024-03-22T06:47:07;32.67;;;16.10;;
19883;SDS011;10104;50.732;10.174;2024-03-22T06:49:47;35.33;;;16.53;;
19883;SDS011;10104;50.732;10.174;2024-03-22T06:52:26;28.77;;;15.13;;
19883;SDS011;10104;50.732;10.174;2024-03-22T06:55:05;30.60;;;15.77;;
19883;SDS011;10104;50.732;10.174;2024-03-22T06:57:48;27.00;;;14.50;;
19883;SDS011;10104;50.732;10.174;2024-03-22T07:00:28;27.60;;;14.63;;
19883;SDS011;10104;50.732;10.174;2024-03-22T07:03:07;29.43;;;15.47;;
19883;SDS011;10104;50.732;10.174;2024-03-22T07:05:47;30.60;;;15.03;;
19883;SDS011;10104;50.732;10.174;2024-03-22T07:08:26;30.83;;;16.03;;
19883;SDS011;10104;50.732;10.174;2024-03-22T07:11:06;25.80;;;14.57;;
19883;SDS011;10104;50.732;10.174;2024-03-22T07:13:46;25.93;;;14.17;;
19883;SDS011;10104;50.732;10.174;2024-03-22T07:16:25;26.83;;;14.63;;
19883;SDS011;10104;50.732;10.174;2024-03-22T07:19:05;26.80;;;15.30;;
19883;SDS011;10104;50.732;10.174;2024-03-22T07:21:45;27.40;;;15.70;;
19883;SDS011;10104;50.732;10.174;2024-03-22T07:24:24;27.83;;;14.80;;
19883;SDS011;10104;50.732;10.174;2024-03-22T07:27:03;30.73;;;15.50;;
19883;SDS011;10104;50.732;10.174;2024-03-22T07:29:43;29.53;;;15.17;;
19883;SDS011;10104;50.732;10.174;2024-03-22T07:32:23;30.10;;;15.27;;
19883;SDS011;10104;50.732;10.174;2024-03-22T07:35:02;23.90;;;12.80;;
19883;SDS011;10104;50.732;10.174;2024-03-22T07:37:42;24.13;;;13.27;;
19883;SDS011;10104;50.732;10.174;2024-03-22T07:40:21;27.27;;;14.20;;
19883;SDS011;10104;50.732;10.174;2024-03-22T07:43:01;21.60;;;12.60;;
19883;SDS011;10104;50.732;10.174;2024-03-22T07:45:44;22.73;;;12.43;;
19883;SDS011;10104;50.732;10.174;2024-03-22T07:48:23;19.73;;;10.90;;
19883;SDS011;10104;50.732;10.174;2024-03-22T07:51:02;18.80;;;9.70;;
19883;SDS011;10104;50.732;10.174;2024-03-22T07:53:42;16.33;;;9.87;;
19883;SDS011;10104;50.732;10.174;2024-03-22T07:56:21;18.73;;;10.17;;
19883;SDS011;10104;50.732;10.174;2024-03-22T07:59:00;15.93;;;9.73;;
19883;SDS011;10104;50.732;10.174;2024-03-22T08:01:40;14.13;;;8.77;;
19883;SDS011;10104;50.732;10.174;2024-03-22T08:04:19;15.63;;;8.57;;
19883;SDS011;10104;50.732;10.174;2024-03-22T08:06:58;14.77;;;8.60;;
19883;SDS011;10104;50.732;10.174;2024-03-22T08:09:37;14.33;;;8.27;;
19883;SDS011;10104;50.732;10.174;2024-03-22T08:12:16;13.23;;;8.00;;
19883;SDS011;10104;50.732;10.174;2024-03-22T08:14:58;13.57;;;8.03;;
19883;SDS011;10104;50.732;10.174;2024-03-22T08:17:37;12.97;;;7.67;;
19883;SDS011;10104;50.732;10.174;2024-03-22T08:20:16;12.43;;;7.97;;
19883;SDS011;10104;50.732;10.174;2024-03-22T08:22:55;11.93;;;7.00;;
19883;SDS011;10104;50.732;10.174;2024-03-22T08:25:34;11.63;;;6.87;;
19883;SDS011;10104;50.732;10.174;2024-03-22T08:28:13;12.57;;;7.47;;
19883;SDS011;10104;50.732;10.174;2024-03-22T08:30:52;11.70;;;6.83;;
19883;SDS011;10104;50.732;10.174;2024-03-22T08:33:31;12.73;;;6.93;;
19883;SDS011;10104;50.732;10.174;2024-03-22T08:36:10;12.37;;;7.10;;
19883;SDS011;10104;50.732;10.174;2024-03-22T08:38:49;11.93;;;6.90;;
19883;SDS011;10104;50.732;10.174;2024-03-22T08:41:28;11.37;;;6.20;;
19883;SDS011;10104;50.732;10.174;2024-03-22T08:44:07;9.77;;;6.13;;
19883;SDS011;10104;50.732;10.174;2024-03-22T08:46:47;7.33;;;4.97;;
19883;SDS011;10104;50.732;10.174;2024-03-22T08:49:26;11.60;;;6.87;;
19883;SDS011;10104;50.732;10.174;2024-03-22T08:52:05;9.77;;;6.18;;
19883;SDS011;10104;50.732;10.174;2024-03-22T08:54:44;11.80;;;6.43;;
19883;SDS011;10104;50.732;10.174;2024-03-22T08:57:23;12.38;;;7.18;;
19883;SDS011;10104;50.732;10.174;2024-03-22T09:00:03;11.85;;;6.88;;
19883;SDS011;10104;50.732;10.174;2024-03-22T09:02:42;11.80;;;7.28;;
19883;SDS011;10104;50.732;10.174;2024-03-22T09:05:21;11.75;;;7.10;;
19883;SDS011;10104;50.732;10.174;2024-03-22T09:08:00;13.57;;;7.50;;
19883;SDS011;10104;50.732;10.174;2024-03-22T09:10:42;10.60;;;7.32;;
19883;SDS011;10104;50.732;10.174;2024-03-22T09:13:21;16.65;;;7.35;;
19883;SDS011;10104;50.732;10.174;2024-03-22T09:16:00;12.25;;;8.07;;
19883;SDS011;10104;50.732;10.174;2024-03-22T09:18:39;15.50;;;8.27;;
19883;SDS011;10104;50.732;10.174;2024-03-22T09:21:18;12.30;;;8.05;;
19883;SDS011;10104;50.732;10.174;2024-03-22T09:23:57;12.50;;;7.82;;
19883;SDS011;10104;50.732;10.174;2024-03-22T09:26:36;13.43;;;8.27;;
19883;SDS011;10104;50.732;10.174;2024-03-22T09:29:15;15.02;;;8.35;;
19883;SDS011;10104;50.732;10.174;2024-03-22T09:31:55;11.63;;;7.65;;
19883;SDS011;10104;50.732;10.174;2024-03-22T09:34:34;11.10;;;8.05;;
19883;SDS011;10104;50.732;10.174;2024-03-22T09:37:13;13.30;;;8.90;;
19883;SDS011;10104;50.732;10.174;2024-03-22T09:39:52;14.75;;;8.65;;
19883;SDS011;10104;50.732;10.174;2024-03-22T09:42:31;11.20;;;7.47;;
19883;SDS011;10104;50.732;10.174;2024-03-22T09:45:11;11.20;;;8.23;;
19883;SDS011;10104;50.732;10.174;2024-03-22T09:47:51;15.52;;;9.23;;
19883;SDS011;10104;50.732;10.174;2024-03-22T09:50:34;13.43;;;9.63;;
19883;SDS011;10104;50.732;10.174;2024-03-22T09:53:17;14.25;;;9.00;;
19883;SDS011;10104;50.732;10.174;2024-03-22T09:55:58;13.05;;;9.05;;
19883;SDS011;10104;50.732;10.174;2024-03-22T09:58:41;15.65;;;10.55;;
19883;SDS011;10104;50.732;10.174;2024-03-22T10:01:21;17.25;;;10.25;;
19883;SDS011;10104;50.732;10.174;2024-03-22T10:04:01;14.35;;;10.48;;
19883;SDS011;10104;50.732;10.174;2024-03-22T10:06:40;17.25;;;11.82;;
19883;SDS011;10104;50.732;10.174;2024-03-22T10:09:27;17.60;;;11.93;;
19883;SDS011;10104;50.732;10.174;2024-03-22T10:12:08;15.85;;;11.68;;
19883;SDS011;10104;50.732;10.174;2024-03-22T10:14:47;16.65;;;12.40;;
19883;SDS011;10104;50.732;10.174;2024-03-22T10:17:26;16.75;;;11.55;;
19883;SDS011;10104;50.732;10.174;2024-03-22T10:20:07;17.15;;;11.98;;
19883;SDS011;10104;50.732;10.174;2024-03-22T10:22:55;20.65;;;12.50;;
19883;SDS011;10104;50.732;10.174;2024-03-22T10:25:37;18.17;;;12.48;;
19883;SDS011;10104;50.732;10.174;2024-03-22T10:28:16;21.50;;;13.30;;
19883;SDS011;10104;50.732;10.174;2024-03-22T10:30:55;17.05;;;11.77;;
19883;SDS011;10104;50.732;10.174;2024-03-22T10:33:34;18.85;;;11.13;;
19883;SDS011;10104;50.732;10.174;2024-03-22T10:36:14;17.45;;;11.85;;
19883;SDS011;10104;50.732;10.174;2024-03-22T10:38:55;18.60;;;12.27;;
19883;SDS011;10104;50.732;10.174;2024-03-22T10:41:34;17.13;;;13.02;;
19883;SDS011;10104;50.732;10.174;2024-03-22T10:44:14;17.98;;;12.38;;
19883;SDS011;10104;50.732;10.174;2024-03-22T10:46:53;16.63;;;11.52;;
19883;SDS011;10104;50.732;10.174;2024-03-22T10:49:37;18.70;;;12.88;;
19883;SDS011;10104;50.732;10.174;2024-03-22T10:52:17;22.73;;;12.50;;
19883;SDS011;10104;50.732;10.174;2024-03-22T10:54:57;14.85;;;11.98;;
19883;SDS011;10104;50.732;10.174;2024-03-22T10:57:37;21.33;;;12.80;;
19883;SDS011;10104;50.732;10.174;2024-03-22T11:00:17;17.95;;;11.95;;
19883;SDS011;10104;50.732;10.174;2024-03-22T11:03:07;17.02;;;11.85;;
19883;SDS011;10104;50.732;10.174;2024-03-22T11:05:47;22.77;;;12.00;;
19883;SDS011;10104;50.732;10.174;2024-03-22T11:08:28;18.23;;;12.02;;
19883;SDS011;10104;50.732;10.174;2024-03-22T11:11:11;16.20;;;11.38;;
19883;SDS011;10104;50.732;10.174;2024-03-22T11:13:51;20.42;;;11.98;;
19883;SDS011;10104;50.732;10.174;2024-03-22T11:16:33;16.70;;;11.25;;
19883;SDS011;10104;50.732;10.174;2024-03-22T11:19:12;17.85;;;11.52;;
19883;SDS011;10104;50.732;10.174;2024-03-22T11:21:51;15.95;;;11.80;;
19883;SDS011;10104;50.732;10.174;2024-03-22T11:24:31;15.98;;;11.27;;
19883;SDS011;10104;50.732;10.174;2024-03-22T11:27:10;15.57;;;10.82;;
19883;SDS011;10104;50.732;10.174;2024-03-22T11:29:50;17.73;;;11.40;;
19883;SDS011;10104;50.732;10.174;2024-03-22T11:32:33;17.30;;;11.27;;
19883;SDS011;10104;50.732;10.174;2024-03-22T11:35:21;16.00;;;11.23;;
19883;SDS011;10104;50.732;10.174;2024-03-22T11:38:01;16.17;;;10.65;;
19883;SDS011;10104;50.732;10.174;2024-03-22T11:40:40;14.25;;;10.27;;
19883;SDS011;10104;50.732;10.174;2024-03-22T11:43:20;16.27;;;10.75;;
19883;SDS011;10104;50.732;10.174;2024-03-22T11:46:00;15.73;;;10.77;;
19883;SDS011;10104;50.732;10.174;2024-03-22T11:48:41;14.70;;;10.68;;
19883;SDS011;10104;50.732;10.174;2024-03-22T11:51:20;18.05;;;10.38;;
19883;SDS011;10104;50.732;10.174;2024-03-22T11:54:00;18.05;;;11.25;;
19883;SDS011;10104;50.732;10.174;2024-03-22T11:56:42;16.30;;;10.43;;
19883;SDS011;10104;50.732;10.174;2024-03-22T11:59:21;13.98;;;10.20;;
19883;SDS011;10104;50.732;10.174;2024-03-22T12:02:00;16.00;;;10.15;;
19883;SDS011;10104;50.732;10.174;2024-03-22T12:04:43;15.13;;;10.05;;
19883;SDS011;10104;50.732;10.174;2024-03-22T12:07:24;17.02;;;11.63;;
19883;SDS011;10104;50.732;10.174;2024-03-22T12:10:04;16.98;;;10.95;;
19883;SDS011;10104;50.732;10.174;2024-03-22T12:12:43;16.05;;;11.65;;
19883;SDS011;10104;50.732;10.174;2024-03-22T12:15:22;18.67;;;11.43;;
19883;SDS011;10104;50.732;10.174;2024-03-22T12:18:02;16.35;;;11.25;;
19883;SDS011;10104;50.732;10.174;2024-03-22T12:20:42;15.93;;;10.55;;
19883;SDS011;10104;50.732;10.174;2024-03-22T12:23:20;15.05;;;9.85;;
19883;SDS011;10104;50.732;10.174;2024-03-22T12:26:00;13.73;;;10.15;;
19883;SDS011;10104;50.732;10.174;2024-03-22T12:28:40;18.58;;;12.07;;
19883;SDS011;10104;50.732;10.174;2024-03-22T12:31:19;13.80;;;10.23;;
19883;SDS011;10104;50.732;10.174;2024-03-22T12:33:59;16.75;;;9.65;;
19883;SDS011;10104;50.732;10.174;2024-03-22T12:36:38;17.10;;;9.93;;
19883;SDS011;10104;50.732;10.174;2024-03-22T12:39:18;12.07;;;9.38;;
19883;SDS011;10104;50.732;10.174;2024-03-22T12:41:57;10.85;;;8.15;;
19883;SDS011;10104;50.732;10.174;2024-03-22T12:44:35;12.80;;;9.18;;
19883;SDS011;10104;50.732;10.174;2024-03-22T12:47:14;10.25;;;7.78;;
19883;SDS011;10104;50.732;10.174;2024-03-22T12:49:54;16.23;;;9.93;;
19883;SDS011;10104;50.732;10.174;2024-03-22T12:52:33;10.38;;;8.00;;
19883;SDS011;10104;50.732;10.174;2024-03-22T12:55:12;13.43;;;8.90;;
19883;SDS011;10104;50.732;10.174;2024-03-22T12:57:51;13.13;;;9.70;;
19883;SDS011;10104;50.732;10.174;2024-03-22T13:00:30;11.63;;;8.70;;
19883;SDS011;10104;50.732;10.174;2024-03-22T13:03:12;14.52;;;9.00;;
19883;SDS011;10104;50.732;10.174;2024-03-22T13:05:54;11.80;;;8.55;;
19883;SDS011;10104;50.732;10.174;2024-03-22T13:08:33;11.75;;;7.93;;
19883;SDS011;10104;50.732;10.174;2024-03-22T13:11:12;11.18;;;8.40;;
19883;SDS011;10104;50.732;10.174;2024-03-22T13:13:52;15.57;;;8.90;;
19883;SDS011;10104;50.732;10.174;2024-03-22T13:16:31;11.30;;;8.73;;
19883;SDS011;10104;50.732;10.174;2024-03-22T13:19:10;12.18;;;9.05;;
19883;SDS011;10104;50.732;10.174;2024-03-22T13:21:52;12.55;;;8.60;;
19883;SDS011;10104;50.732;10.174;2024-03-22T13:24:31;11.65;;;8.73;;
19883;SDS011;10104;50.732;10.174;2024-03-22T13:27:11;12.57;;;9.50;;
19883;SDS011;10104;50.732;10.174;2024-03-22T13:29:51;14.80;;;9.60;;
19883;SDS011;10104;50.732;10.174;2024-03-22T13:32:31;12.85;;;9.10;;
19883;SDS011;10104;50.732;10.174;2024-03-22T13:35:10;10.60;;;8.57;;
19883;SDS011;10104;50.732;10.174;2024-03-22T13:37:49;11.13;;;8.13;;
19883;SDS011;10104;50.732;10.174;2024-03-22T13:40:29;11.48;;;8.57;;
19883;SDS011;10104;50.732;10.174;2024-03-22T13:43:08;12.02;;;8.80;;
19883;SDS011;10104;50.732;10.174;2024-03-22T13:45:50;26.80;;;18.65;;
19883;SDS011;10104;50.732;10.174;2024-03-22T13:48:32;10.55;;;8.60;;
19883;SDS011;10104;50.732;10.174;2024-03-22T13:51:11;13.32;;;9.15;;
19883;SDS011;10104;50.732;10.174;2024-03-22T13:53:51;12.02;;;7.03;;
19883;SDS011;10104;50.732;10.174;2024-03-22T13:56:30;9.55;;;7.18;;
19883;SDS011;10104;50.732;10.174;2024-03-22T13:59:09;10.35;;;7.45;;
19883;SDS011;10104;50.732;10.174;2024-03-22T14:01:49;12.52;;;7.30;;
19883;SDS011;10104;50.732;10.174;2024-03-22T14:04:29;11.10;;;7.53;;
19883;SDS011;10104;50.732;10.174;2024-03-22T14:07:08;11.13;;;8.57;;
19883;SDS011;10104;50.732;10.174;2024-03-22T14:09:48;11.68;;;7.88;;
19883;SDS011;10104;50.732;10.174;2024-03-22T14:12:28;14.30;;;8.73;;
19883;SDS011;10104;50.732;10.174;2024-03-22T14:15:07;12.95;;;8.80;;
19883;SDS011;10104;50.732;10.174;2024-03-22T14:17:46;12.02;;;7.97;;
19883;SDS011;10104;50.732;10.174;2024-03-22T14:20:25;12.68;;;8.57;;
19883;SDS011;10104;50.732;10.174;2024-03-22T14:23:05;12.18;;;8.40;;
19883;SDS011;10104;50.732;10.174;2024-03-22T14:25:46;12.93;;;8.75;;
19883;SDS011;10104;50.732;10.174;2024-03-22T14:28:26;14.02;;;9.57;;
19883;SDS011;10104;50.732;10.174;2024-03-22T14:31:06;15.60;;;9.80;;
19883;SDS011;10104;50.732;10.174;2024-03-22T14:33:47;13.65;;;9.10;;
19883;SDS011;10104;50.732;10.174;2024-03-22T14:36:26;14.50;;;8.32;;
19883;SDS011;10104;50.732;10.174;2024-03-22T14:39:05;11.02;;;7.68;;
19883;SDS011;10104;50.732;10.174;2024-03-22T14:41:45;11.13;;;8.25;;
19883;SDS011;10104;50.732;10.174;2024-03-22T14:44:24;12.02;;;8.13;;
19883;SDS011;10104;50.732;10.174;2024-03-22T14:47:03;12.32;;;8.40;;
19883;SDS011;10104;50.732;10.174;2024-03-22T14:49:42;10.98;;;8.73;;
19883;SDS011;10104;50.732;10.174;2024-03-22T14:52:22;12.98;;;8.73;;
19883;SDS011;10104;50.732;10.174;2024-03-22T14:55:01;12.10;;;8.68;;
19883;SDS011;10104;50.732;10.174;2024-03-22T14:57:40;19.73;;;14.50;;
19883;SDS011;10104;50.732;10.174;2024-03-22T15:00:19;16.10;;;10.30;;
19883;SDS011;10104;50.732;10.174;2024-03-22T15:02:59;18.02;;;11.10;;
19883;SDS011;10104;50.732;10.174;2024-03-22T15:05:38;11.65;;;8.57;;
19883;SDS011;10104;50.732;10.174;2024-03-22T15:08:17;11.32;;;8.57;;
19883;SDS011;10104;50.732;10.174;2024-03-22T15:10:57;17.33;;;9.57;;
19883;SDS011;10104;50.732;10.174;2024-03-22T15:13:37;13.73;;;9.65;;
19883;SDS011;10104;50.732;10.174;2024-03-22T15:16:16;15.35;;;8.80;;
19883;SDS011;10104;50.732;10.174;2024-03-22T15:18:55;13.02;;;8.52;;
19883;SDS011;10104;50.732;10.174;2024-03-22T15:21:38;20.73;;;13.05;;
19883;SDS011;10104;50.732;10.174;2024-03-22T15:24:17;14.43;;;9.48;;
19883;SDS011;10104;50.732;10.174;2024-03-22T15:26:58;12.98;;;9.35;;
19883;SDS011;10104;50.732;10.174;2024-03-22T15:29:37;14.27;;;9.48;;